createdAt,value
2022-08-22T00:00:24.856Z,45.52
2022-08-22T00:02:45.811Z,42.90
2022-08-22T00:03:01.690Z,45.96
2022-08-22T00:03:03.565Z,43.63
2022-08-22T00:03:04.817Z,41.20
2022-08-22T00:03:22.829Z,44.78
2022-08-22T00:06:02.608Z,44.47
2022-08-22T00:08:39.590Z,45.52
2022-08-22T00:11:13.784Z,45.63
2022-08-22T00:13:48.845Z,47.09
2022-08-22T00:16:32.481Z,46.66
2022-08-22T00:19:07.447Z,47.29
2022-08-22T00:21:42.006Z,46.01
2022-08-22T00:24:19.134Z,45.97
2022-08-22T00:26:51.885Z,45.93
2022-08-22T00:29:25.549Z,46.49
2022-08-22T00:32:01.776Z,47.01
2022-08-22T00:34:34.685Z,47.30
2022-08-22T00:37:08.585Z,48.78
2022-08-22T00:39:43.225Z,49.52
2022-08-22T00:42:32.989Z,50.20
2022-08-22T00:45:14.107Z,51.27
2022-08-22T00:47:51.117Z,52.61
2022-08-22T00:50:46.180Z,52.78
2022-08-22T00:53:41.308Z,54.66
2022-08-22T00:56:42.490Z,53.82
2022-08-22T00:59:37.408Z,53.45
2022-08-22T01:02:16.500Z,54.73
2022-08-22T01:04:52.869Z,54.29
2022-08-22T01:07:38.158Z,55.05
2022-08-22T01:10:20.881Z,52.44
2022-08-22T01:13:05.200Z,53.26
2022-08-22T01:15:36.445Z,52.48
2022-08-22T01:18:26.056Z,54.74
2022-08-22T01:21:43.534Z,57.67
2022-08-22T01:25:11.985Z,54.68
2022-08-22T01:28:13.363Z,54.13
2022-08-22T01:31:30.036Z,60.09
2022-08-22T01:34:48.989Z,56.82
2022-08-22T01:37:45.358Z,60.79
2022-08-22T01:40:55.612Z,55.19
2022-08-22T01:43:43.894Z,59.86
2022-08-22T01:46:33.633Z,60.60
2022-08-22T01:49:09.016Z,58.77
2022-08-22T01:51:41.595Z,57.17
2022-08-22T01:54:14.685Z,54.98
2022-08-22T01:56:44.996Z,55.44
2022-08-22T01:59:15.870Z,58.76
2022-08-22T02:02:01.280Z,58.76
2022-08-22T02:04:38.991Z,55.30
2022-08-22T02:07:12.641Z,55.02
2022-08-22T02:09:47.525Z,53.61
2022-08-22T02:12:36.481Z,54.95
2022-08-22T02:15:14.256Z,55.34
2022-08-22T02:18:02.219Z,55.61
2022-08-22T02:20:34.417Z,55.05
2022-08-22T02:23:09.038Z,55.43
2022-08-22T02:25:50.481Z,58.02
2022-08-22T02:28:29.419Z,58.58
2022-08-22T02:31:04.172Z,53.74
2022-08-22T02:33:42.181Z,52.59
2022-08-22T02:36:18.002Z,54.76
2022-08-22T02:38:52.607Z,57.38
2022-08-22T02:41:25.802Z,50.18
2022-08-22T02:43:56.516Z,53.23
2022-08-22T02:46:30.873Z,55.21
2022-08-22T02:49:09.372Z,54.23
2022-08-22T02:51:44.610Z,55.67
2022-08-22T02:54:17.532Z,55.46
2022-08-22T02:56:51.872Z,53.94
2022-08-22T02:59:32.040Z,54.27
2022-08-22T03:02:31.059Z,53.63
2022-08-22T03:05:01.812Z,56.76
2022-08-22T03:07:43.061Z,58.33
2022-08-22T03:10:18.857Z,61.35
2022-08-22T03:12:57.629Z,60.34
2022-08-22T03:15:32.194Z,63.10
2022-08-22T03:18:05.456Z,65.58
2022-08-22T03:20:43.250Z,56.79
2022-08-22T03:23:17.676Z,58.99
2022-08-22T03:25:50.262Z,60.23
2022-08-22T03:28:23.576Z,61.16
2022-08-22T03:31:01.269Z,62.22
2022-08-22T03:33:31.124Z,57.86
2022-08-22T03:36:05.116Z,63.22
2022-08-22T03:38:46.944Z,68.03
2022-08-22T03:41:33.708Z,68.98
2022-08-22T03:44:24.390Z,66.72
2022-08-22T03:47:07.588Z,63.44
2022-08-22T03:50:11.075Z,56.72
2022-08-22T03:53:19.201Z,56.24
2022-08-22T03:56:23.420Z,57.61
2022-08-22T03:59:09.922Z,58.13
2022-08-22T04:02:42.527Z,60.49
2022-08-22T04:05:26.699Z,62.01
2022-08-22T04:08:33.950Z,68.38
2022-08-22T04:11:21.572Z,72.09
2022-08-22T04:14:07.794Z,70.69
2022-08-22T04:17:06.920Z,76.96
2022-08-22T04:19:56.223Z,80.94
2022-08-22T04:22:38.664Z,82.83
2022-08-22T04:25:08.804Z,82.98
2022-08-22T04:27:42.185Z,91.63
2022-08-22T04:30:18.417Z,90.22
2022-08-22T04:32:51.257Z,92.80
2022-08-22T04:35:28.535Z,93.14
2022-08-22T04:38:00.722Z,83.06
2022-08-22T04:40:32.165Z,89.05
2022-08-22T04:43:06.226Z,91.22
2022-08-22T04:45:38.402Z,79.14
2022-08-22T04:48:09.564Z,80.82
2022-08-22T04:50:43.256Z,76.89
2022-08-22T04:53:43.956Z,78.88
2022-08-22T04:56:23.443Z,72.86
2022-08-22T04:58:56.039Z,69.01
2022-08-22T05:01:25.904Z,66.90
2022-08-22T05:03:59.012Z,64.92
2022-08-22T05:06:29.922Z,63.87
2022-08-22T05:09:03.637Z,61.65
2022-08-22T05:11:32.555Z,61.45
2022-08-22T05:14:04.196Z,57.40
2022-08-22T05:16:35.839Z,58.84
2022-08-22T05:19:11.999Z,62.33
2022-08-22T05:21:43.997Z,58.89
2022-08-22T05:24:19.976Z,57.69
2022-08-22T05:26:51.768Z,58.15
2022-08-22T05:29:24.361Z,54.78
2022-08-22T05:31:55.861Z,56.84
2022-08-22T05:34:26.250Z,55.08
2022-08-22T05:36:58.373Z,54.53
2022-08-22T05:39:29.971Z,52.36
2022-08-22T05:42:01.293Z,53.45
2022-08-22T05:44:32.834Z,53.22
2022-08-22T05:47:03.316Z,52.78
2022-08-22T05:49:37.000Z,51.27
2022-08-22T05:52:10.480Z,51.17
2022-08-22T05:54:51.872Z,49.79
2022-08-22T05:57:26.695Z,49.42
2022-08-22T06:00:01.952Z,50.45
2022-08-22T06:02:51.270Z,51.31
2022-08-22T06:05:24.880Z,49.46
2022-08-22T06:07:57.070Z,49.50
2022-08-22T06:10:29.836Z,49.86
2022-08-22T06:13:02.615Z,51.95
2022-08-22T06:15:35.437Z,54.29
2022-08-22T06:18:07.722Z,65.58
2022-08-22T06:20:40.227Z,65.55
2022-08-22T06:23:09.568Z,76.73
2022-08-22T06:25:41.106Z,74.85
2022-08-22T06:28:11.027Z,67.85
2022-08-22T06:30:40.682Z,62.42
2022-08-22T06:33:12.650Z,62.22
2022-08-22T06:36:01.012Z,59.54
2022-08-22T06:38:33.568Z,56.27
2022-08-22T06:41:06.887Z,56.32
2022-08-22T06:43:38.946Z,53.89
2022-08-22T06:46:07.528Z,56.25
2022-08-22T06:48:36.960Z,53.74
2022-08-22T06:51:08.344Z,52.24
2022-08-22T06:53:40.334Z,50.74
2022-08-22T06:56:22.327Z,50.70
2022-08-22T06:58:52.303Z,51.89
2022-08-22T07:01:23.320Z,53.61
2022-08-22T07:03:53.749Z,53.70
2022-08-22T07:06:30.561Z,54.23
2022-08-22T07:08:59.443Z,56.21
2022-08-22T07:11:38.234Z,63.70
2022-08-22T07:14:08.903Z,65.57
2022-08-22T07:16:42.610Z,74.04
2022-08-22T07:19:12.306Z,72.81
2022-08-22T07:21:46.165Z,74.82
2022-08-22T07:24:17.520Z,81.23
2022-08-22T07:27:09.021Z,81.70
2022-08-22T07:29:45.506Z,80.86
2022-08-22T07:32:17.571Z,83.71
2022-08-22T07:35:05.805Z,99.86
2022-08-22T07:37:54.075Z,94.91
2022-08-22T07:40:27.414Z,93.08
2022-08-22T07:43:03.318Z,98.96
2022-08-22T07:45:38.968Z,100.00
2022-08-22T07:48:25.520Z,100.00
2022-08-22T07:51:05.394Z,96.66
2022-08-22T07:53:41.448Z,86.85
2022-08-22T07:56:15.611Z,91.13
2022-08-22T07:58:47.871Z,81.99
2022-08-22T08:01:19.774Z,85.30
2022-08-22T08:03:55.104Z,93.36
2022-08-22T08:06:24.885Z,77.37
2022-08-22T08:08:53.929Z,75.83
2022-08-22T08:11:24.551Z,90.51
2022-08-22T08:13:58.275Z,98.27
2022-08-22T08:16:32.586Z,88.46
2022-08-22T08:19:02.022Z,90.49
2022-08-22T08:21:32.604Z,87.66
2022-08-22T08:24:01.981Z,75.82
2022-08-22T08:26:34.466Z,74.27
2022-08-22T08:29:04.113Z,65.01
2022-08-22T08:31:43.304Z,77.81
2022-08-22T08:34:16.402Z,100.00
2022-08-22T08:36:49.716Z,100.00
2022-08-22T08:39:22.953Z,100.00
2022-08-22T08:42:15.363Z,100.00
2022-08-22T08:45:03.107Z,100.00
2022-08-22T08:47:46.098Z,100.00
2022-08-22T08:50:26.790Z,100.00
2022-08-22T08:53:31.345Z,100.00
2022-08-22T08:56:04.325Z,100.00
2022-08-22T08:58:43.453Z,100.00
2022-08-22T09:01:35.779Z,100.00
2022-08-22T09:04:25.356Z,100.00
2022-08-22T09:07:24.529Z,100.00
2022-08-22T09:10:11.177Z,100.00
2022-08-22T09:13:21.530Z,94.81
2022-08-22T09:16:11.442Z,95.78
2022-08-22T09:19:24.481Z,87.22
2022-08-22T09:22:18.486Z,77.82
2022-08-22T09:25:17.915Z,73.39
2022-08-22T09:27:51.444Z,77.45
2022-08-22T09:30:27.616Z,69.82
2022-08-22T09:32:59.637Z,68.45
2022-08-22T09:35:36.110Z,63.30
2022-08-22T09:38:31.220Z,61.23
2022-08-22T09:41:08.711Z,59.74
2022-08-22T09:43:44.709Z,58.28
2022-08-22T09:46:20.227Z,61.28
2022-08-22T09:49:02.375Z,56.38
2022-08-22T09:51:40.420Z,54.55
2022-08-22T09:54:31.127Z,49.50
2022-08-22T09:57:16.919Z,49.97
2022-08-22T10:00:22.684Z,50.96
2022-08-22T10:03:06.292Z,46.86
2022-08-22T10:05:44.194Z,42.10
2022-08-22T10:08:26.669Z,44.24
2022-08-22T10:11:07.632Z,40.66
2022-08-22T10:13:46.400Z,40.46
2022-08-22T10:16:21.686Z,39.46
2022-08-22T10:19:00.549Z,39.37
2022-08-22T10:21:36.345Z,40.77
2022-08-22T10:24:25.513Z,39.53
2022-08-22T10:26:55.834Z,40.65
2022-08-22T10:29:47.277Z,41.32
2022-08-22T10:32:27.524Z,39.63
2022-08-22T10:34:58.713Z,40.44
2022-08-22T10:37:32.340Z,41.50
2022-08-22T10:40:07.166Z,40.67
2022-08-22T10:42:40.127Z,39.99
2022-08-22T10:45:32.130Z,40.95
2022-08-22T10:48:31.861Z,40.79
2022-08-22T10:51:08.721Z,40.59
2022-08-22T10:54:02.324Z,40.69
2022-08-22T10:56:36.670Z,40.22
2022-08-22T10:59:13.307Z,38.91
2022-08-22T11:01:46.128Z,39.38
2022-08-22T11:04:27.975Z,41.05
2022-08-22T11:07:02.253Z,39.75
2022-08-22T11:09:55.178Z,40.05
2022-08-22T11:12:34.646Z,39.99
2022-08-22T11:15:07.457Z,41.07
2022-08-22T11:18:13.235Z,40.61
2022-08-22T11:20:51.735Z,39.83
2022-08-22T11:23:27.091Z,41.69
2022-08-22T11:26:05.153Z,40.52
2022-08-22T11:29:14.063Z,40.62
2022-08-22T11:31:51.323Z,40.54
2022-08-22T11:34:32.262Z,41.10
2022-08-22T11:37:10.926Z,40.80
2022-08-22T11:39:42.888Z,41.11
2022-08-22T11:42:16.350Z,40.37
2022-08-22T11:44:55.665Z,39.50
2022-08-22T11:47:28.910Z,40.52
2022-08-22T11:49:59.544Z,38.81
2022-08-22T11:52:39.614Z,39.93
2022-08-22T11:55:21.562Z,39.70
2022-08-22T11:57:51.825Z,39.32
2022-08-22T12:00:27.939Z,39.08
2022-08-22T12:03:23.333Z,39.24
2022-08-22T12:05:53.403Z,39.38
2022-08-22T12:08:46.296Z,38.49
2022-08-22T12:11:19.480Z,39.50
2022-08-22T12:13:51.660Z,39.40
2022-08-22T12:16:44.992Z,38.79
2022-08-22T12:19:23.367Z,38.89
2022-08-22T12:22:10.601Z,38.79
2022-08-22T12:25:02.710Z,37.79
2022-08-22T12:27:53.888Z,37.30
2022-08-22T12:30:31.318Z,37.24
2022-08-22T12:33:30.235Z,37.64
2022-08-22T12:36:17.984Z,39.92
2022-08-22T12:38:58.384Z,39.35
2022-08-22T12:41:38.867Z,39.92
2022-08-22T12:44:20.429Z,39.92
2022-08-22T12:47:04.549Z,39.50
2022-08-22T12:49:49.788Z,39.55
2022-08-22T12:52:31.787Z,40.37
2022-08-22T12:55:27.420Z,42.45
2022-08-22T12:58:01.971Z,45.60
2022-08-22T13:00:34.697Z,45.86
2022-08-22T13:03:06.106Z,47.85
2022-08-22T13:05:40.990Z,46.07
2022-08-22T13:08:12.726Z,46.04
2022-08-22T13:10:44.913Z,44.83
2022-08-22T13:13:16.603Z,45.48
2022-08-22T13:15:56.427Z,46.41
2022-08-22T13:18:31.093Z,44.86
2022-08-22T13:21:04.270Z,42.94
2022-08-22T13:23:39.600Z,43.03
2022-08-22T13:26:31.628Z,42.57
2022-08-22T13:29:24.498Z,43.38
2022-08-22T13:31:55.349Z,44.01
2022-08-22T13:34:38.509Z,43.41
2022-08-22T13:37:14.890Z,43.44
2022-08-22T13:39:46.580Z,42.04
2022-08-22T13:42:20.220Z,45.28
2022-08-22T13:45:02.219Z,44.09
2022-08-22T13:47:34.576Z,45.05
2022-08-22T13:50:11.262Z,44.96
2022-08-22T13:52:49.377Z,44.72
2022-08-22T13:55:32.598Z,45.68
2022-08-22T13:58:07.680Z,45.89
2022-08-22T14:01:18.435Z,46.77
2022-08-22T14:03:49.289Z,46.69
2022-08-22T14:06:43.989Z,48.02
2022-08-22T14:09:29.519Z,49.12
2022-08-22T14:12:12.179Z,47.34
2022-08-22T14:14:43.053Z,46.63
2022-08-22T14:17:21.276Z,47.07
2022-08-22T14:19:59.792Z,46.44
2022-08-22T14:22:35.157Z,47.96
2022-08-22T14:25:10.205Z,47.58
2022-08-22T14:27:40.729Z,48.37
2022-08-22T14:30:16.181Z,47.59
2022-08-22T14:32:49.246Z,47.04
2022-08-22T14:35:35.204Z,46.55
2022-08-22T14:38:21.468Z,47.99
2022-08-22T14:41:02.133Z,50.01
2022-08-22T14:43:49.952Z,48.87
2022-08-22T14:46:26.557Z,49.51
2022-08-22T14:49:13.701Z,50.51
2022-08-22T14:51:48.643Z,50.34
2022-08-22T14:54:21.948Z,49.42
2022-08-22T14:56:53.557Z,50.44
2022-08-22T14:59:36.528Z,51.12
2022-08-22T15:02:11.598Z,52.76
2022-08-22T15:04:44.037Z,51.11
2022-08-22T15:07:14.896Z,49.71
2022-08-22T15:09:52.326Z,49.22
2022-08-22T15:12:27.568Z,48.47
2022-08-22T15:14:58.122Z,47.60
2022-08-22T15:17:40.080Z,47.50
2022-08-22T15:20:27.981Z,47.44
2022-08-22T15:22:59.133Z,48.48
2022-08-22T15:25:30.790Z,49.13
2022-08-22T15:28:05.595Z,49.12
2022-08-22T15:30:37.987Z,49.35
2022-08-22T15:33:16.946Z,48.40
2022-08-22T15:35:48.259Z,48.02
2022-08-22T15:38:29.343Z,47.25
2022-08-22T15:41:02.955Z,48.52
2022-08-22T15:43:36.208Z,47.33
2022-08-22T15:46:18.847Z,47.17
2022-08-22T15:48:57.447Z,47.05
2022-08-22T15:51:39.897Z,48.24
2022-08-22T15:54:16.357Z,48.28
2022-08-22T15:57:14.132Z,46.84
2022-08-22T15:59:54.688Z,48.35
2022-08-22T16:02:27.243Z,48.28
2022-08-22T16:05:05.226Z,48.02
2022-08-22T16:07:40.513Z,47.47
2022-08-22T16:10:12.516Z,48.12
2022-08-22T16:12:44.061Z,48.25
2022-08-22T16:15:41.951Z,50.10
2022-08-22T16:18:50.182Z,48.77
2022-08-22T16:21:19.579Z,48.69
2022-08-22T16:24:25.390Z,48.45
2022-08-22T16:26:53.978Z,48.45
2022-08-22T16:29:35.543Z,47.63
2022-08-22T16:32:11.229Z,47.89
2022-08-22T16:34:43.998Z,47.35
2022-08-22T16:37:47.871Z,47.13
2022-08-22T16:40:21.788Z,48.30
2022-08-22T16:42:55.045Z,47.75
2022-08-22T16:45:33.730Z,48.01
2022-08-22T16:48:23.103Z,48.20
2022-08-22T16:51:09.425Z,47.84
2022-08-22T16:54:06.301Z,46.87
2022-08-22T16:56:39.408Z,47.52
2022-08-22T16:59:38.627Z,48.41
2022-08-22T17:02:25.802Z,46.58
2022-08-22T17:05:05.481Z,46.73
2022-08-22T17:07:48.414Z,47.23
2022-08-22T17:10:41.825Z,46.73
2022-08-22T17:13:20.671Z,46.56
2022-08-22T17:16:22.935Z,46.15
2022-08-22T17:19:03.913Z,45.41
2022-08-22T17:21:39.824Z,45.77
2022-08-22T17:24:32.176Z,45.36
2022-08-22T17:27:08.341Z,44.89
2022-08-22T17:29:45.972Z,44.13
2022-08-22T17:32:18.786Z,44.82
2022-08-22T17:34:56.961Z,46.14
2022-08-22T17:37:35.989Z,44.67
2022-08-22T17:40:15.637Z,44.42
2022-08-22T17:43:00.415Z,43.39
2022-08-22T17:45:38.017Z,44.44
2022-08-22T17:48:09.169Z,45.01
2022-08-22T17:50:43.224Z,44.95
2022-08-22T17:53:16.064Z,45.43
2022-08-22T17:55:59.737Z,45.26
2022-08-22T17:58:37.596Z,44.36
2022-08-22T18:01:15.837Z,44.58
2022-08-22T18:03:47.986Z,44.49
2022-08-22T18:06:20.289Z,44.29
2022-08-22T18:11:46.524Z,45.14
2022-08-22T18:14:25.765Z,44.78
2022-08-22T18:16:55.469Z,45.54
2022-08-22T18:19:40.362Z,44.73
2022-08-22T18:22:13.063Z,44.23
2022-08-22T18:24:49.493Z,43.36
2022-08-22T18:27:34.292Z,43.74
2022-08-22T18:30:07.979Z,44.11
2022-08-22T18:32:41.911Z,44.79
2022-08-22T18:35:20.950Z,45.35
2022-08-22T18:37:58.211Z,43.98
2022-08-22T18:40:32.113Z,43.67
2022-08-22T18:43:08.884Z,44.50
2022-08-22T18:46:02.780Z,44.55
2022-08-22T18:48:49.523Z,45.98
2022-08-22T18:51:29.728Z,45.37
2022-08-22T18:54:16.334Z,45.18
2022-08-22T18:56:50.871Z,44.45
2022-08-22T18:59:42.364Z,45.45
2022-08-22T19:02:25.920Z,45.18
2022-08-22T19:05:12.360Z,45.51
2022-08-22T19:07:54.032Z,44.75
2022-08-22T19:10:41.915Z,45.65
2022-08-22T19:13:22.615Z,44.38
2022-08-22T19:16:06.850Z,46.02
2022-08-22T19:18:42.970Z,46.79
2022-08-22T19:21:38.358Z,46.87
2022-08-22T19:24:09.720Z,47.29
2022-08-22T19:26:41.959Z,48.22
2022-08-22T19:29:56.163Z,50.07
2022-08-22T19:33:01.781Z,48.88
2022-08-22T19:35:46.365Z,47.86
2022-08-22T19:38:53.426Z,47.63
2022-08-22T19:41:57.095Z,48.40
2022-08-22T19:44:38.098Z,47.82
2022-08-22T19:47:14.292Z,48.24
2022-08-22T19:49:45.910Z,47.83
2022-08-22T19:52:23.175Z,48.47
2022-08-22T19:54:57.965Z,47.09
2022-08-22T19:57:37.714Z,46.68
2022-08-22T20:00:11.142Z,47.07
2022-08-22T20:02:51.305Z,47.54
2022-08-22T20:05:29.190Z,47.16
2022-08-22T20:08:12.470Z,46.29
2022-08-22T20:10:51.519Z,46.97
2022-08-22T20:13:23.021Z,48.47
2022-08-22T20:16:16.218Z,47.50
2022-08-22T20:19:06.475Z,48.93
2022-08-22T20:21:45.422Z,48.69
2022-08-22T20:24:16.198Z,49.73
2022-08-22T20:27:10.099Z,48.56
2022-08-22T20:29:36.002Z,49.09
2022-08-22T20:32:06.421Z,48.86
2022-08-22T20:34:38.579Z,47.57
2022-08-22T20:37:29.643Z,49.12
2022-08-22T20:40:00.946Z,49.22
2022-08-22T20:42:32.227Z,48.96
2022-08-22T20:45:00.976Z,48.38
2022-08-22T20:47:40.674Z,47.91
2022-08-22T20:50:11.586Z,47.83
2022-08-22T20:52:54.356Z,48.18
2022-08-22T20:55:27.321Z,48.16
2022-08-22T20:58:02.681Z,47.44
2022-08-22T21:00:33.079Z,46.83
2022-08-22T21:03:03.053Z,47.47
2022-08-22T21:05:35.100Z,48.32
2022-08-22T21:08:06.867Z,49.05
2022-08-22T21:10:54.526Z,49.70
2022-08-22T21:13:26.169Z,49.22
2022-08-22T21:15:57.181Z,49.51
2022-08-22T21:18:28.972Z,48.98
2022-08-22T21:21:08.056Z,49.40
2022-08-22T21:23:50.208Z,49.00
2022-08-22T21:26:23.068Z,47.50
2022-08-22T21:28:57.730Z,50.64
2022-08-22T21:31:27.240Z,49.53
2022-08-22T21:33:56.466Z,49.93
2022-08-22T21:36:27.912Z,51.15
2022-08-22T21:39:00.885Z,49.51
2022-08-22T21:41:35.801Z,52.48
2022-08-22T21:44:25.456Z,51.08
2022-08-22T21:46:53.732Z,53.11
2022-08-22T21:49:23.757Z,53.10
2022-08-22T21:51:52.518Z,51.40
2022-08-22T21:54:39.677Z,52.12
2022-08-22T21:57:33.517Z,51.35
2022-08-22T22:00:02.173Z,49.38
2022-08-22T22:02:41.909Z,50.71
2022-08-22T22:05:14.277Z,49.82
2022-08-22T22:07:44.439Z,48.87
2022-08-22T22:10:16.856Z,49.54
2022-08-22T22:12:46.737Z,50.08
2022-08-22T22:15:17.406Z,50.78
2022-08-22T22:17:45.690Z,51.45
2022-08-22T22:20:15.346Z,50.12
2022-08-22T22:22:46.361Z,50.46
2022-08-22T22:25:40.704Z,48.16
2022-08-22T22:28:08.826Z,49.13
2022-08-22T22:30:37.139Z,51.30
2022-08-22T22:33:05.623Z,55.22
2022-08-22T22:35:33.907Z,57.79
2022-08-22T22:38:02.425Z,63.47
2022-08-22T22:40:32.295Z,65.88
2022-08-22T22:43:00.716Z,90.23
2022-08-22T22:45:28.879Z,100.00
2022-08-22T22:47:57.243Z,100.00
2022-08-22T22:50:25.731Z,100.00
2022-08-22T22:52:54.046Z,100.00
2022-08-22T22:55:24.969Z,100.00
2022-08-22T22:57:58.718Z,100.00
2022-08-22T23:00:30.742Z,100.00
2022-08-22T23:03:00.876Z,100.00
2022-08-22T23:05:29.487Z,100.00
2022-08-22T23:07:58.116Z,100.00
2022-08-22T23:10:27.325Z,100.00
2022-08-22T23:12:56.896Z,100.00
2022-08-22T23:15:25.261Z,100.00
2022-08-22T23:17:53.555Z,100.00
2022-08-22T23:20:21.756Z,100.00
2022-08-22T23:22:50.224Z,100.00
2022-08-22T23:25:18.523Z,100.00
2022-08-22T23:27:48.685Z,100.00
2022-08-22T23:30:23.337Z,100.00
2022-08-22T23:32:51.688Z,100.00
2022-08-22T23:35:20.032Z,100.00
2022-08-22T23:37:48.213Z,100.00
2022-08-22T23:40:16.720Z,100.00
2022-08-22T23:42:45.005Z,100.00
2022-08-22T23:45:13.576Z,100.00
2022-08-22T23:47:43.155Z,100.00
2022-08-22T23:50:11.351Z,100.00
2022-08-22T23:52:39.750Z,100.00
2022-08-22T23:55:08.760Z,100.00
2022-08-22T23:57:37.001Z,100.00
